Time;durP1;ratioP1;P1;durP2;ratioP2;P2;SDS_P1;SDS_P2;PMS_P1;PMS_P2;Temp;Humidity;BMP_temperature;BMP_pressure;BME280_temperature;BME280_humidity;BME280_pressure;Samples;Min_cycle;Max_cycle;Signal;HPM_P1;HPM_P2
2023/09/24 00:02:20;;;;;;;0.50;0.30;;;14.40;99.90;;;;;;5093228;28;20434;-57
2023/09/24 00:04:48;;;;;;;0.90;0.32;;;14.50;99.90;;;;;;5094768;28;20443;-58
2023/09/24 00:07:16;;;;;;;0.60;0.30;;;14.40;99.90;;;;;;5094132;28;20825;-58
2023/09/24 00:09:43;;;;;;;0.60;0.30;;;14.30;1.00;;;;;;5095538;28;20467;-58
2023/09/24 00:12:12;;;;;;;0.50;0.30;;;14.40;1.00;;;;;;5095473;28;20425;-57
2023/09/24 00:14:40;;;;;;;1.85;0.40;;;14.30;1.00;;;;;;5094414;28;20421;-58
2023/09/24 00:17:09;;;;;;;0.70;0.40;;;14.20;1.00;;;;;;5095132;28;20479;-58
2023/09/24 00:19:37;;;;;;;0.90;0.40;;;14.00;1.00;;;;;;5094274;28;20494;-57
2023/09/24 00:22:04;;;;;;;1.60;0.30;;;14.00;1.00;;;;;;5094294;28;20428;-59
2023/09/24 00:24:31;;;;;;;1.30;0.40;;;14.00;1.00;;;;;;5092769;28;20737;-57
2023/09/24 00:26:58;;;;;;;0.50;0.30;;;14.10;1.00;;;;;;5094463;28;20460;-57
2023/09/24 00:29:27;;;;;;;0.80;0.30;;;14.20;1.00;;;;;;5094165;28;20453;-57
2023/09/24 00:31:54;;;;;;;0.60;0.30;;;14.20;1.00;;;;;;5094428;28;20488;-56
2023/09/24 00:34:21;;;;;;;0.70;0.30;;;14.20;1.00;;;;;;5094849;28;20421;-57
2023/09/24 00:36:50;;;;;;;0.90;0.33;;;14.20;1.00;;;;;;5094825;28;20430;-58
2023/09/24 00:39:17;;;;;;;1.00;0.30;;;14.20;1.00;;;;;;5094626;28;20414;-57
2023/09/24 00:41:45;;;;;;;1.70;0.40;;;14.20;1.00;;;;;;5094926;28;20513;-58
2023/09/24 00:44:14;;;;;;;1.20;0.30;;;14.20;1.00;;;;;;5095312;28;20430;-57
2023/09/24 00:46:44;;;;;;;1.60;0.30;;;14.20;1.00;;;;;;5094124;28;20425;-57
2023/09/24 00:49:13;;;;;;;0.70;0.40;;;14.20;1.00;;;;;;5094577;28;20430;-57
2023/09/24 00:51:41;;;;;;;0.80;0.40;;;14.20;1.00;;;;;;5095246;28;20484;-59
2023/09/24 00:54:10;;;;;;;0.70;0.40;;;14.00;1.00;;;;;;5097940;28;20471;-57
2023/09/24 00:56:37;;;;;;;0.70;0.40;;;14.00;1.00;;;;;;5098583;28;20512;-57
2023/09/24 00:59:06;;;;;;;0.80;0.40;;;14.00;1.00;;;;;;5098647;28;20781;-57
2023/09/24 01:01:34;;;;;;;1.50;0.40;;;13.90;1.00;;;;;;5099067;28;20536;-57
2023/09/24 01:04:04;;;;;;;0.60;0.40;;;13.90;1.00;;;;;;5096398;28;20439;-58
2023/09/24 01:06:31;;;;;;;0.68;0.40;;;14.00;1.00;;;;;;5096984;28;20810;-57
2023/09/24 01:08:59;;;;;;;0.70;0.40;;;14.00;1.00;;;;;;5098248;28;20410;-57
2023/09/24 01:11:27;;;;;;;1.05;0.30;;;13.90;1.00;;;;;;5098487;28;20453;-58
2023/09/24 01:13:54;;;;;;;0.80;0.40;;;13.80;1.00;;;;;;5098859;28;20429;-57
2023/09/24 01:16:21;;;;;;;0.70;0.40;;;13.80;1.00;;;;;;5098188;28;20426;-57
2023/09/24 01:18:49;;;;;;;0.60;0.40;;;13.80;1.00;;;;;;5097883;28;20445;-57
2023/09/24 01:21:19;;;;;;;1.10;0.40;;;13.80;1.00;;;;;;5096144;28;20466;-58
2023/09/24 01:23:49;;;;;;;0.63;0.40;;;13.90;1.00;;;;;;5096820;28;20471;-57
2023/09/24 01:26:18;;;;;;;0.70;0.40;;;14.00;1.00;;;;;;5096255;28;20536;-57
2023/09/24 01:28:47;;;;;;;1.10;0.32;;;14.00;1.00;;;;;;5096143;28;20776;-57
2023/09/24 01:31:15;;;;;;;0.80;0.50;;;14.00;1.00;;;;;;5095328;28;20879;-57
2023/09/24 01:33:43;;;;;;;0.80;0.38;;;14.00;1.00;;;;;;5097077;28;20891;-57
2023/09/24 01:36:10;;;;;;;2.20;0.30;;;14.10;1.00;;;;;;5097903;28;20414;-57
2023/09/24 01:38:40;;;;;;;0.50;0.30;;;14.10;1.00;;;;;;5098018;28;20425;-57
2023/09/24 01:41:10;;;;;;;0.90;0.40;;;14.20;1.00;;;;;;5098091;28;20439;-57
2023/09/24 01:43:37;;;;;;;0.60;0.30;;;14.20;1.00;;;;;;5097985;28;20455;-57
2023/09/24 01:46:07;;;;;;;0.60;0.40;;;14.10;1.00;;;;;;5097911;28;20900;-57
2023/09/24 01:48:35;;;;;;;0.60;0.35;;;13.90;1.00;;;;;;5097279;28;20457;-57
2023/09/24 01:51:08;;;;;;;1.30;0.40;;;13.70;1.00;;;;;;5097337;28;20424;-57
2023/09/24 01:53:36;;;;;;;1.00;0.40;;;13.70;1.00;;;;;;5097767;28;20429;-57
2023/09/24 01:56:05;;;;;;;0.57;0.40;;;13.60;1.00;;;;;;5098240;28;20428;-57
2023/09/24 01:58:35;;;;;;;0.80;0.38;;;13.60;1.00;;;;;;5097739;28;20871;-58
2023/09/24 02:01:03;;;;;;;0.57;0.30;;;13.60;1.00;;;;;;5097128;28;20499;-57
2023/09/24 02:03:30;;;;;;;0.90;0.32;;;13.60;1.00;;;;;;5095960;28;20506;-57
2023/09/24 02:05:58;;;;;;;0.60;0.30;;;13.60;1.00;;;;;;5095727;28;20443;-57
2023/09/24 02:08:25;;;;;;;0.60;0.30;;;13.50;1.00;;;;;;5096156;28;20426;-57
2023/09/24 02:10:52;;;;;;;0.60;0.40;;;13.50;1.00;;;;;;5096392;28;20516;-57
2023/09/24 02:13:20;;;;;;;0.70;0.40;;;13.40;1.00;;;;;;5095844;28;20455;-57
2023/09/24 02:15:50;;;;;;;0.80;0.40;;;13.40;1.00;;;;;;5095864;28;20485;-57
2023/09/24 02:18:17;;;;;;;0.60;0.30;;;13.30;1.00;;;;;;5097251;28;20506;-57
2023/09/24 02:20:47;;;;;;;0.70;0.40;;;13.30;1.00;;;;;;5097731;28;20458;-57
2023/09/24 02:23:15;;;;;;;0.80;0.40;;;13.20;1.00;;;;;;5097103;28;20436;-57
2023/09/24 02:25:44;;;;;;;0.88;0.30;;;13.20;1.00;;;;;;5097163;28;20444;-57
2023/09/24 02:28:12;;;;;;;2.70;0.40;;;13.20;1.00;;;;;;5097191;28;20452;-57
2023/09/24 02:30:40;;;;;;;0.70;0.30;;;13.40;1.00;;;;;;5097769;28;20410;-57
2023/09/24 02:33:09;;;;;;;0.70;0.30;;;13.30;1.00;;;;;;5096407;28;20425;-57
2023/09/24 02:35:36;;;;;;;0.70;0.30;;;13.30;1.00;;;;;;5097217;28;20421;-57
2023/09/24 02:38:07;;;;;;;0.60;0.30;;;13.40;1.00;;;;;;5096664;28;20426;-57
2023/09/24 02:40:34;;;;;;;0.70;0.40;;;13.40;1.00;;;;;;5097102;28;20516;-57
2023/09/24 02:43:03;;;;;;;0.65;0.35;;;13.40;1.00;;;;;;5096503;28;20444;-57
2023/09/24 02:45:31;;;;;;;0.63;0.30;;;13.30;1.00;;;;;;5096599;28;20512;-59
2023/09/24 02:47:58;;;;;;;0.68;0.40;;;13.30;1.00;;;;;;5096566;28;20443;-57
2023/09/24 02:50:29;;;;;;;1.38;0.40;;;13.30;1.00;;;;;;5096555;28;20426;-57
2023/09/24 02:52:57;;;;;;;0.70;0.30;;;13.20;1.00;;;;;;5096872;28;20725;-58
2023/09/24 02:55:25;;;;;;;1.00;0.30;;;13.10;1.00;;;;;;5096837;28;20440;-57
2023/09/24 02:57:52;;;;;;;0.60;0.30;;;12.90;1.00;;;;;;5096039;28;20902;-57
2023/09/24 03:00:26;;;;;;;0.70;0.40;;;12.80;1.00;;;;;;5096851;28;20488;-57
2023/09/24 03:02:55;;;;;;;0.60;0.30;;;12.80;1.00;;;;;;5095252;28;20426;-57
2023/09/24 03:05:24;;;;;;;0.50;0.20;;;12.80;1.00;;;;;;5096464;28;20437;-57
2023/09/24 03:07:53;;;;;;;0.63;0.30;;;12.70;1.00;;;;;;5096858;28;20418;-58
2023/09/24 03:10:22;;;;;;;0.50;0.30;;;12.70;1.00;;;;;;5096564;28;20800;-58
2023/09/24 03:12:50;;;;;;;0.60;0.40;;;12.80;1.00;;;;;;5095719;28;20528;-58
2023/09/24 03:15:19;;;;;;;0.80;0.40;;;12.80;1.00;;;;;;5096613;28;20418;-59
2023/09/24 03:17:47;;;;;;;1.95;0.40;;;12.80;1.00;;;;;;5095711;28;20432;-59
2023/09/24 03:20:16;;;;;;;1.20;0.40;;;12.90;1.00;;;;;;5096508;28;20513;-59
2023/09/24 03:22:46;;;;;;;1.10;0.40;;;12.90;1.00;;;;;;5095723;28;20429;-58
2023/09/24 03:25:17;;;;;;;1.15;0.40;;;13.10;1.00;;;;;;5095752;28;20465;-58
2023/09/24 03:27:44;;;;;;;1.30;0.40;;;13.10;1.00;;;;;;5096578;28;20430;-58
2023/09/24 03:30:14;;;;;;;0.75;0.30;;;12.90;1.00;;;;;;5096772;28;20418;-58
2023/09/24 03:32:42;;;;;;;0.70;0.30;;;12.90;1.00;;;;;;5095958;28;20422;-58
2023/09/24 03:35:10;;;;;;;1.90;0.40;;;13.00;1.00;;;;;;5095854;28;20421;-58
2023/09/24 03:37:43;;;;;;;0.50;0.30;;;12.90;1.00;;;;;;5096178;28;20432;-57
2023/09/24 03:40:12;;;;;;;0.65;0.30;;;12.90;1.00;;;;;;5095685;28;20422;-58
2023/09/24 03:42:41;;;;;;;0.70;0.30;;;12.70;1.00;;;;;;5095568;28;20410;-57
2023/09/24 03:45:10;;;;;;;0.60;0.30;;;12.50;1.00;;;;;;5096208;28;20722;-58
2023/09/24 03:47:39;;;;;;;0.77;0.40;;;12.60;1.00;;;;;;5095948;28;20512;-58
2023/09/24 03:50:09;;;;;;;0.60;0.32;;;12.60;1.00;;;;;;5095620;28;20422;-58
2023/09/24 03:52:37;;;;;;;0.70;0.40;;;12.60;1.00;;;;;;5095541;28;20847;-58
2023/09/24 03:55:05;;;;;;;0.75;0.40;;;12.60;1.00;;;;;;5095207;28;20425;-58
2023/09/24 03:57:33;;;;;;;0.55;0.30;;;12.50;1.00;;;;;;5095689;28;20497;-58
2023/09/24 04:00:02;;;;;;;1.00;0.30;;;12.60;1.00;;;;;;5095728;28;20825;-57
2023/09/24 04:02:29;;;;;;;0.60;0.38;;;12.60;1.00;;;;;;5095515;28;20516;-57
2023/09/24 04:04:57;;;;;;;0.60;0.38;;;12.60;1.00;;;;;;5095571;28;20433;-58
2023/09/24 04:07:24;;;;;;;0.90;0.30;;;12.70;1.00;;;;;;5095887;28;20429;-59
2023/09/24 04:09:51;;;;;;;0.63;0.30;;;12.80;1.00;;;;;;5095755;28;20453;-57
2023/09/24 04:12:18;;;;;;;1.40;0.40;;;12.80;1.00;;;;;;5095419;28;20413;-58
2023/09/24 04:14:46;;;;;;;0.90;0.40;;;12.80;1.00;;;;;;5095042;28;20559;-58
2023/09/24 04:17:14;;;;;;;0.70;0.43;;;12.70;1.00;;;;;;5095486;28;20825;-58
2023/09/24 04:19:41;;;;;;;0.70;0.40;;;12.80;1.00;;;;;;5094932;28;20432;-57
2023/09/24 04:22:09;;;;;;;0.60;0.30;;;12.90;1.00;;;;;;5093302;28;20418;-58
2023/09/24 04:24:36;;;;;;;0.50;0.30;;;13.00;1.00;;;;;;5093953;28;20416;-58
2023/09/24 04:27:04;;;;;;;1.00;0.30;;;13.00;1.00;;;;;;5094224;28;20481;-57
2023/09/24 04:29:31;;;;;;;1.02;0.30;;;13.10;1.00;;;;;;5093681;28;20474;-57
2023/09/24 04:31:58;;;;;;;1.10;0.40;;;13.10;1.00;;;;;;5094258;28;20489;-57
2023/09/24 04:34:27;;;;;;;1.10;0.30;;;13.00;1.00;;;;;;5094142;28;20432;-57
2023/09/24 04:36:54;;;;;;;0.60;0.30;;;12.80;1.00;;;;;;5094926;28;20720;-58
2023/09/24 04:39:22;;;;;;;0.55;0.30;;;12.60;1.00;;;;;;5095028;28;20418;-57
2023/09/24 04:41:50;;;;;;;0.70;0.30;;;12.60;1.00;;;;;;5094687;28;20414;-56
2023/09/24 04:44:17;;;;;;;1.50;0.40;;;12.60;1.00;;;;;;5094937;28;21032;-57
2023/09/24 04:46:44;;;;;;;1.00;0.40;;;12.40;1.00;;;;;;5094347;28;20537;-57
2023/09/24 04:49:11;;;;;;;0.60;0.30;;;12.30;1.00;;;;;;5093237;28;20787;-58
2023/09/24 04:51:40;;;;;;;0.68;0.40;;;12.40;1.00;;;;;;5093288;28;20480;-57
2023/09/24 04:54:07;;;;;;;0.60;0.30;;;12.30;1.00;;;;;;5093317;28;20417;-58
2023/09/24 04:56:34;;;;;;;0.70;0.40;;;12.20;1.00;;;;;;5093102;28;20466;-57
2023/09/24 04:59:02;;;;;;;0.80;0.40;;;12.20;1.00;;;;;;5093188;28;20790;-57
2023/09/24 05:01:29;;;;;;;0.70;0.40;;;12.40;1.00;;;;;;5093632;28;20522;-57
2023/09/24 05:03:56;;;;;;;0.70;0.40;;;12.50;1.00;;;;;;5093525;28;20517;-57
2023/09/24 05:06:24;;;;;;;0.63;0.30;;;12.60;1.00;;;;;;5093215;28;20920;-58
2023/09/24 05:08:53;;;;;;;0.77;0.40;;;12.60;1.00;;;;;;5093789;28;20422;-59
2023/09/24 05:11:20;;;;;;;0.60;0.40;;;12.70;1.00;;;;;;5094125;28;20429;-57
2023/09/24 05:13:47;;;;;;;0.70;0.40;;;12.60;1.00;;;;;;5093752;28;20436;-58
2023/09/24 05:16:15;;;;;;;0.63;0.40;;;12.60;1.00;;;;;;5093779;28;20512;-57
2023/09/24 05:18:43;;;;;;;0.70;0.40;;;12.60;1.00;;;;;;5092588;28;20678;-57
2023/09/24 05:21:17;;;;;;;0.80;0.40;;;12.70;1.00;;;;;;5093589;28;20454;-57
2023/09/24 05:23:44;;;;;;;0.60;0.40;;;12.60;1.00;;;;;;5093966;28;20753;-57
2023/09/24 05:26:14;;;;;;;0.80;0.40;;;12.70;1.00;;;;;;5093340;28;20432;-58
2023/09/24 05:28:42;;;;;;;0.90;0.40;;;12.60;1.00;;;;;;5094181;28;20528;-58
2023/09/24 05:31:09;;;;;;;0.80;0.40;;;12.60;1.00;;;;;;5094137;28;20716;-58
2023/09/24 05:33:38;;;;;;;1.00;0.40;;;12.60;1.00;;;;;;5094254;28;20928;-58
2023/09/24 05:36:05;;;;;;;1.08;0.50;;;12.60;1.00;;;;;;5094181;28;20445;-58
2023/09/24 05:38:32;;;;;;;0.80;0.50;;;12.40;1.00;;;;;;5093935;28;20742;-57
2023/09/24 05:41:00;;;;;;;0.93;0.40;;;12.50;1.00;;;;;;5096537;28;20430;-56
2023/09/24 05:43:29;;;;;;;0.82;0.40;;;12.40;1.00;;;;;;5097308;28;20433;-56
2023/09/24 05:45:56;;;;;;;0.60;0.40;;;12.40;1.00;;;;;;5096830;28;20465;-58
2023/09/24 05:48:23;;;;;;;0.70;0.40;;;12.40;1.00;;;;;;5095914;28;20417;-57
2023/09/24 05:50:50;;;;;;;0.60;0.35;;;12.40;1.00;;;;;;5096553;28;20417;-58
2023/09/24 05:53:17;;;;;;;0.70;0.40;;;12.40;1.00;;;;;;5096853;28;20448;-57
2023/09/24 05:55:55;;;;;;;0.63;0.40;;;12.50;1.00;;;;;;5095870;28;20416;-58
2023/09/24 05:58:23;;;;;;;1.90;0.40;;;12.70;1.00;;;;;;5096296;28;20517;-58
2023/09/24 06:00:51;;;;;;;0.90;0.50;;;12.80;1.00;;;;;;5097627;28;20483;-58
2023/09/24 06:03:19;;;;;;;0.80;0.50;;;12.80;1.00;;;;;;5096725;28;20418;-58
2023/09/24 06:05:46;;;;;;;1.45;0.40;;;12.90;1.00;;;;;;5097701;28;20744;-58
2023/09/24 06:08:14;;;;;;;0.70;0.40;;;12.90;1.00;;;;;;5097804;28;20464;-57
2023/09/24 06:10:45;;;;;;;0.80;0.40;;;13.00;1.00;;;;;;5097169;28;20476;-56
2023/09/24 06:13:14;;;;;;;0.70;0.40;;;13.00;1.00;;;;;;5096037;28;20437;-58
2023/09/24 06:15:41;;;;;;;0.70;0.40;;;13.00;1.00;;;;;;5097432;28;20418;-58
2023/09/24 06:18:10;;;;;;;0.70;0.47;;;13.20;1.00;;;;;;5097659;28;20422;-58
2023/09/24 06:20:41;;;;;;;0.60;0.40;;;13.20;1.00;;;;;;5097235;28;20418;-59
2023/09/24 06:23:10;;;;;;;1.20;0.40;;;13.20;1.00;;;;;;5096420;28;20426;-59
2023/09/24 06:25:37;;;;;;;1.00;0.40;;;13.20;1.00;;;;;;5096923;28;20483;-57
2023/09/24 06:28:09;;;;;;;0.60;0.40;;;13.00;1.00;;;;;;5097175;28;20509;-58
2023/09/24 06:30:36;;;;;;;0.80;0.40;;;13.00;1.00;;;;;;5096835;28;20421;-58
2023/09/24 06:33:04;;;;;;;0.70;0.40;;;13.10;1.00;;;;;;5095811;28;20516;-57
2023/09/24 06:35:33;;;;;;;0.80;0.50;;;13.10;1.00;;;;;;5095318;28;20426;-57
2023/09/24 06:38:01;;;;;;;0.73;0.40;;;13.20;1.00;;;;;;5096037;28;20482;-57
2023/09/24 06:40:28;;;;;;;0.70;0.40;;;13.10;1.00;;;;;;5095200;28;20516;-57
2023/09/24 06:42:55;;;;;;;0.98;0.50;;;13.00;1.00;;;;;;5094802;28;20801;-57
2023/09/24 06:45:23;;;;;;;0.77;0.50;;;13.00;1.00;;;;;;5096067;28;20418;-57
2023/09/24 06:47:50;;;;;;;0.70;0.50;;;12.90;1.00;;;;;;5096834;28;20429;-57
2023/09/24 06:50:18;;;;;;;1.10;0.50;;;12.80;1.00;;;;;;5096512;28;20457;-57
2023/09/24 06:52:46;;;;;;;1.20;0.50;;;12.80;1.00;;;;;;5096762;28;20555;-57
2023/09/24 06:55:14;;;;;;;0.80;0.50;;;12.90;1.00;;;;;;5097109;28;20425;-57
2023/09/24 06:57:41;;;;;;;0.85;0.40;;;12.90;1.00;;;;;;5095232;28;20410;-57
2023/09/24 07:00:10;;;;;;;0.88;0.50;;;12.80;1.00;;;;;;5094549;28;20997;-56
2023/09/24 07:02:37;;;;;;;1.70;0.50;;;12.80;1.00;;;;;;5095356;28;20430;-55
2023/09/24 07:05:07;;;;;;;0.80;0.50;;;12.70;1.00;;;;;;5095732;28;20456;-55
2023/09/24 07:07:34;;;;;;;1.00;0.50;;;12.70;1.00;;;;;;5095936;28;20522;-57
2023/09/24 07:10:03;;;;;;;1.00;0.47;;;12.90;1.00;;;;;;5096809;28;20702;-57
2023/09/24 07:12:31;;;;;;;2.03;0.50;;;13.00;1.00;;;;;;5096528;28;20414;-56
2023/09/24 07:14:58;;;;;;;1.60;0.40;;;13.10;1.00;;;;;;5094869;28;20470;-57
2023/09/24 07:17:26;;;;;;;0.70;0.40;;;13.20;1.00;;;;;;5094883;28;20418;-57
2023/09/24 07:19:53;;;;;;;0.70;0.40;;;13.30;1.00;;;;;;5094730;28;20764;-56
2023/09/24 07:22:26;;;;;;;0.85;0.50;;;13.40;1.00;;;;;;5094973;28;20464;-57
2023/09/24 07:24:53;;;;;;;1.20;0.40;;;13.30;1.00;;;;;;5093947;28;20483;-57
2023/09/24 07:27:22;;;;;;;1.60;0.40;;;13.40;1.00;;;;;;5094832;28;20529;-58
2023/09/24 07:29:49;;;;;;;0.80;0.50;;;13.60;1.00;;;;;;5094309;28;20759;-57
2023/09/24 07:32:17;;;;;;;1.10;0.50;;;13.80;1.00;;;;;;5094489;28;20445;-57
2023/09/24 07:34:46;;;;;;;0.75;0.40;;;13.90;1.00;;;;;;5092940;28;20511;-57
2023/09/24 07:37:14;;;;;;;0.90;0.40;;;14.00;1.00;;;;;;5094863;28;20461;-58
2023/09/24 07:39:42;;;;;;;1.50;0.40;;;14.10;1.00;;;;;;5094868;28;20780;-58
2023/09/24 07:42:09;;;;;;;0.80;0.50;;;14.20;1.00;;;;;;5094831;28;20699;-58
2023/09/24 07:44:38;;;;;;;1.45;0.40;;;14.30;1.00;;;;;;5093724;28;20504;-58
2023/09/24 07:47:05;;;;;;;0.70;0.50;;;14.50;1.00;;;;;;5094137;28;20436;-58
2023/09/24 07:49:32;;;;;;;1.00;0.50;;;14.70;1.00;;;;;;5093720;28;20453;-57
2023/09/24 07:51:59;;;;;;;1.73;0.50;;;14.80;99.90;;;;;;5093478;28;20516;-57
2023/09/24 07:54:27;;;;;;;1.10;0.60;;;14.90;99.90;;;;;;5093937;28;20475;-58
2023/09/24 07:56:54;;;;;;;0.80;0.50;;;14.60;99.90;;;;;;5093619;28;20716;-57
2023/09/24 07:59:23;;;;;;;1.00;0.60;;;14.40;1.00;;;;;;5092958;28;20537;-56
2023/09/24 08:01:52;;;;;;;1.00;0.50;;;14.20;1.00;;;;;;5093985;28;20425;-57
2023/09/24 08:04:19;;;;;;;1.10;0.50;;;14.20;1.00;;;;;;5087008;28;20433;-56
2023/09/24 08:06:47;;;;;;;1.55;0.50;;;14.30;1.00;;;;;;5093887;28;20810;-55
2023/09/24 08:09:14;;;;;;;0.90;0.50;;;14.50;1.00;;;;;;5095219;28;20413;-57
2023/09/24 08:11:41;;;;;;;1.00;0.50;;;14.70;1.00;;;;;;5094730;28;20441;-57
2023/09/24 08:14:09;;;;;;;1.00;0.50;;;14.90;1.00;;;;;;5091131;28;20438;-57
2023/09/24 08:16:36;;;;;;;0.90;0.50;;;15.00;99.90;;;;;;5095362;28;20429;-57
2023/09/24 08:19:05;;;;;;;0.80;0.50;;;15.00;99.90;;;;;;5094755;28;20433;-59
2023/09/24 08:21:32;;;;;;;0.85;0.50;;;15.10;99.90;;;;;;5095583;28;20418;-59
2023/09/24 08:24:00;;;;;;;0.80;0.50;;;15.10;99.90;;;;;;5093404;28;20441;-59
2023/09/24 08:26:27;;;;;;;0.77;0.40;;;15.20;99.90;;;;;;5094767;28;20440;-59
2023/09/24 08:28:54;;;;;;;0.80;0.50;;;15.20;99.90;;;;;;5093787;28;20808;-59
2023/09/24 08:31:25;;;;;;;0.85;0.50;;;15.30;99.90;;;;;;5094061;28;20490;-59
2023/09/24 08:33:52;;;;;;;0.70;0.40;;;15.40;99.90;;;;;;5092815;28;20523;-59
2023/09/24 08:36:21;;;;;;;0.80;0.50;;;15.60;99.90;;;;;;5095664;28;20414;-59
2023/09/24 08:38:49;;;;;;;0.70;0.50;;;15.80;1.00;;;;;;5096116;28;20422;-59
2023/09/24 08:41:16;;;;;;;0.80;0.43;;;16.10;99.90;;;;;;5095814;28;20538;-59
2023/09/24 08:43:44;;;;;;;0.80;0.40;;;16.20;1.00;;;;;;5094603;28;20487;-59
2023/09/24 08:46:12;;;;;;;0.82;0.30;;;16.10;99.90;;;;;;5093104;28;20441;-59
2023/09/24 08:48:40;;;;;;;1.10;0.40;;;15.90;1.00;;;;;;5085581;28;20467;-58
2023/09/24 08:51:09;;;;;;;0.70;0.40;;;15.90;1.00;;;;;;5093687;28;20418;-59
2023/09/24 08:53:39;;;;;;;1.00;0.60;;;15.90;1.00;;;;;;5097375;28;20437;-59
2023/09/24 08:56:07;;;;;;;1.80;0.50;;;15.80;1.00;;;;;;5094293;28;20486;-59
2023/09/24 08:58:34;;;;;;;0.90;0.50;;;15.60;1.00;;;;;;5092823;28;20877;-58
2023/09/24 09:01:02;;;;;;;0.60;0.40;;;15.80;99.90;;;;;;5093045;28;20461;-59
2023/09/24 09:03:30;;;;;;;1.30;0.40;;;16.10;19.20;;;;;;5093172;28;20418;-59
2023/09/24 09:05:57;;;;;;;1.33;0.40;;;16.20;1.00;;;;;;5092624;28;20735;-59
2023/09/24 09:08:25;;;;;;;0.82;0.60;;;16.30;99.90;;;;;;5091733;28;20887;-59
2023/09/24 09:10:54;;;;;;;0.75;0.40;;;16.30;1.00;;;;;;5092668;28;20500;-59
2023/09/24 09:13:22;;;;;;;0.80;0.40;;;16.50;1.00;;;;;;5091708;28;20433;-59
2023/09/24 09:16:03;;;;;;;0.80;0.43;;;16.80;1.00;;;;;;5093824;28;20643;-59
2023/09/24 09:18:31;;;;;;;1.05;0.40;;;16.90;99.90;;;;;;5095000;28;20983;-58
2023/09/24 09:20:59;;;;;;;0.50;0.30;;;17.00;99.90;;;;;;5094624;28;20837;-59
2023/09/24 09:23:33;;;;;;;1.40;0.40;;;17.10;1.00;;;;;;5095360;28;20619;-59
2023/09/24 09:26:02;;;;;;;1.00;0.30;;;17.10;99.90;;;;;;5096460;28;20479;-58
2023/09/24 09:28:31;;;;;;;0.70;0.32;;;17.20;99.90;;;;;;5093911;28;20433;-59
2023/09/24 09:30:59;;;;;;;0.50;0.30;;;17.30;88.90;;;;;;5094078;28;20689;-59
2023/09/24 09:33:27;;;;;;;1.00;0.30;;;17.30;1.00;;;;;;5094693;28;20421;-59
2023/09/24 09:35:55;;;;;;;0.40;0.30;;;17.40;1.00;;;;;;5093779;28;20810;-59
2023/09/24 09:38:22;;;;;;;0.52;0.30;;;17.50;1.00;;;;;;5094326;28;20763;-59
2023/09/24 09:40:55;;;;;;;1.60;0.30;;;17.40;1.00;;;;;;5096183;28;20480;-59
2023/09/24 09:43:25;;;;;;;1.00;0.50;;;17.50;1.00;;;;;;5096581;28;20892;-59
2023/09/24 09:45:55;;;;;;;1.57;0.30;;;17.60;1.00;;;;;;5097120;28;20418;-59
2023/09/24 09:48:30;;;;;;;0.45;0.30;;;17.60;99.90;;;;;;5097306;28;20788;-58
2023/09/24 09:51:06;;;;;;;0.75;0.30;;;17.40;99.90;;;;;;5074944;28;20684;-59
2023/09/24 09:53:35;;;;;;;1.63;0.30;;;17.50;99.90;;;;;;5094137;28;20485;-59
2023/09/24 09:56:04;;;;;;;0.70;0.30;;;17.60;99.90;;;;;;5092249;28;20611;-59
2023/09/24 09:58:38;;;;;;;1.55;0.30;;;17.80;99.90;;;;;;5092745;28;20477;-59
2023/09/24 10:01:06;;;;;;;0.60;0.30;;;18.00;99.90;;;;;;5093108;28;20520;-59
2023/09/24 10:03:36;;;;;;;0.50;0.30;;;18.40;99.90;;;;;;5098525;27;20418;-59
2023/09/24 10:06:06;;;;;;;0.70;0.30;;;18.70;99.90;;;;;;5134566;27;20963;-59
2023/09/24 10:08:43;;;;;;;1.50;0.50;;;18.80;99.80;;;;;;5135992;27;20466;-59
2023/09/24 10:11:12;;;;;;;0.80;0.30;;;19.10;20.00;;;;;;5137193;27;20733;-59
2023/09/24 10:13:46;;;;;;;0.60;0.30;;;19.20;1.00;;;;;;5138109;27;20425;-60
2023/09/24 10:16:37;;;;;;;0.60;0.37;;;19.50;1.00;;;;;;5136555;27;20880;-59
2023/09/24 10:19:06;;;;;;;0.73;0.40;;;19.80;1.00;;;;;;5137413;27;20422;-59
2023/09/24 10:21:35;;;;;;;0.80;0.40;;;19.70;1.00;;;;;;5138436;27;20406;-59
2023/09/24 10:24:47;;;;;;;0.70;0.40;;;19.80;1.00;;;;;;5137086;27;20418;-60
2023/09/24 10:27:15;;;;;;;1.30;0.30;;;19.90;1.00;;;;;;5124435;27;20547;-60
2023/09/24 10:30:10;;;;;;;0.70;0.35;;;20.00;1.00;;;;;;5125436;27;20434;-60
2023/09/24 10:32:49;;;;;;;0.60;0.30;;;20.10;1.00;;;;;;5116392;28;20416;-60
2023/09/24 10:35:17;;;;;;;0.90;0.40;;;19.90;1.00;;;;;;5130968;27;20566;-59
2023/09/24 10:38:04;;;;;;;0.63;0.30;;;19.80;1.00;;;;;;5137828;27;20423;-59
2023/09/24 10:40:35;;;;;;;0.80;0.40;;;20.00;1.00;;;;;;5096637;28;20432;-60
2023/09/24 10:43:19;;;;;;;0.60;0.30;;;20.20;1.00;;;;;;5095989;28;20432;-59
2023/09/24 10:45:48;;;;;;;0.63;0.30;;;20.10;1.00;;;;;;5096533;28;20861;-59
2023/09/24 10:48:16;;;;;;;0.50;0.30;;;20.40;1.00;;;;;;5099636;27;20436;-58
2023/09/24 10:50:44;;;;;;;0.90;0.40;;;20.70;1.00;;;;;;5106043;27;20442;-60
2023/09/24 10:53:12;;;;;;;0.60;0.35;;;20.50;1.00;;;;;;5135266;27;20434;-60
2023/09/24 10:55:41;;;;;;;0.50;0.30;;;20.50;1.00;;;;;;5136588;27;20417;-60
2023/09/24 10:58:13;;;;;;;0.70;0.30;;;20.80;1.00;;;;;;5135577;27;20728;-60
2023/09/24 11:00:42;;;;;;;1.00;0.30;;;21.00;1.00;;;;;;5133185;27;20436;-60
2023/09/24 11:03:13;;;;;;;1.20;0.30;;;21.10;1.00;;;;;;5134154;27;20521;-60
2023/09/24 11:05:47;;;;;;;0.57;0.40;;;21.20;1.00;;;;;;5136427;27;20455;-60
2023/09/24 11:08:15;;;;;;;0.60;0.30;;;21.10;1.00;;;;;;5136129;27;20756;-60
2023/09/24 11:10:48;;;;;;;0.70;0.30;;;21.00;1.00;;;;;;5135986;27;20422;-60
2023/09/24 11:13:16;;;;;;;0.50;0.30;;;20.90;1.00;;;;;;5121512;27;20509;-61
2023/09/24 11:15:43;;;;;;;0.65;0.40;;;20.80;1.00;;;;;;5115457;28;20432;-60
2023/09/24 11:18:14;;;;;;;0.60;0.30;;;21.10;1.00;;;;;;5112985;28;20448;-60
2023/09/24 11:20:49;;;;;;;0.68;0.30;;;21.40;1.00;;;;;;5114432;28;20420;-60
2023/09/24 11:23:18;;;;;;;0.50;0.30;;;21.30;1.00;;;;;;5132676;27;20453;-60
2023/09/24 11:25:48;;;;;;;0.77;0.30;;;21.20;1.00;;;;;;5135476;27;20547;-60
2023/09/24 11:28:16;;;;;;;0.60;0.30;;;21.20;1.00;;;;;;5136625;27;20434;-60
2023/09/24 11:30:45;;;;;;;0.90;0.40;;;21.10;1.00;;;;;;5135622;27;20414;-60
2023/09/24 11:33:16;;;;;;;0.63;0.40;;;21.20;1.00;;;;;;5132906;27;20882;-60
2023/09/24 11:35:45;;;;;;;0.50;0.30;;;21.50;1.00;;;;;;5132207;27;20433;-60
2023/09/24 11:38:12;;;;;;;0.60;0.30;;;21.60;1.00;;;;;;5131673;27;20473;-60
2023/09/24 11:40:41;;;;;;;0.70;0.30;;;21.50;1.00;;;;;;5135806;27;20430;-60
2023/09/24 11:43:14;;;;;;;0.60;0.30;;;21.60;1.00;;;;;;5136173;27;20447;-61
2023/09/24 11:45:43;;;;;;;0.70;0.30;;;21.50;1.00;;;;;;5117510;27;20441;-60
2023/09/24 11:48:14;;;;;;;0.50;0.30;;;21.30;1.00;;;;;;5127182;27;20427;-60
2023/09/24 11:50:43;;;;;;;1.00;0.30;;;21.50;1.00;;;;;;5133445;27;20783;-61
2023/09/24 11:53:11;;;;;;;0.52;0.30;;;21.60;1.00;;;;;;5115004;28;20423;-60
2023/09/24 11:55:38;;;;;;;0.70;0.30;;;21.80;1.00;;;;;;5127832;27;20423;-60
2023/09/24 11:58:06;;;;;;;0.50;0.30;;;21.80;1.00;;;;;;5135587;27;20422;-60
2023/09/24 12:00:34;;;;;;;0.65;0.30;;;21.80;1.00;;;;;;5135677;27;20523;-60
2023/09/24 12:03:03;;;;;;;0.40;0.20;;;21.90;1.00;;;;;;5134266;27;20497;-60
2023/09/24 12:05:33;;;;;;;0.90;0.30;;;22.10;1.00;;;;;;5132235;27;20491;-60
2023/09/24 12:08:01;;;;;;;1.05;0.50;;;21.90;1.00;;;;;;5134537;27;20434;-60
2023/09/24 12:10:29;;;;;;;0.70;0.20;;;21.80;1.00;;;;;;5133078;27;20825;-60
2023/09/24 12:13:01;;;;;;;0.50;0.20;;;21.80;1.00;;;;;;5133624;27;20492;-59
2023/09/24 12:15:30;;;;;;;0.80;0.40;;;21.60;1.00;;;;;;5133843;27;20436;-61
2023/09/24 12:17:58;;;;;;;1.00;0.30;;;21.60;1.00;;;;;;5126022;27;20425;-59
2023/09/24 12:20:26;;;;;;;0.70;0.30;;;21.30;1.00;;;;;;5115775;28;20481;-60
2023/09/24 12:22:57;;;;;;;0.90;0.30;;;21.00;1.00;;;;;;5129532;27;20910;-60
2023/09/24 12:25:24;;;;;;;0.80;0.30;;;20.80;1.00;;;;;;5135031;27;20422;-59
2023/09/24 12:27:51;;;;;;;0.70;0.30;;;20.80;1.00;;;;;;5134021;27;20927;-58
2023/09/24 12:30:19;;;;;;;0.60;0.30;;;20.70;1.00;;;;;;5127751;27;20431;-58
2023/09/24 12:32:47;;;;;;;0.75;0.40;;;20.30;1.00;;;;;;5136028;28;20849;-59
2023/09/24 12:35:14;;;;;;;0.60;0.30;;;20.30;1.00;;;;;;5134542;28;20422;-59
2023/09/24 12:37:42;;;;;;;0.50;0.30;;;20.50;1.00;;;;;;5135715;28;20410;-58
2023/09/24 12:40:12;;;;;;;0.45;0.30;;;20.70;1.00;;;;;;5135552;28;20417;-58
2023/09/24 12:42:40;;;;;;;0.50;0.30;;;20.90;1.00;;;;;;5135395;28;20467;-59
2023/09/24 12:45:09;;;;;;;0.60;0.30;;;21.00;1.00;;;;;;5134580;28;20471;-58
2023/09/24 12:47:37;;;;;;;0.88;0.30;;;21.30;1.00;;;;;;5134005;28;20453;-59
2023/09/24 12:50:06;;;;;;;0.50;0.25;;;21.30;1.00;;;;;;5136303;27;20475;-59
2023/09/24 12:52:35;;;;;;;0.60;0.30;;;21.20;1.00;;;;;;5138402;27;20419;-59
2023/09/24 12:55:04;;;;;;;0.60;0.30;;;21.20;1.00;;;;;;5138897;27;20429;-58
2023/09/24 12:57:33;;;;;;;0.70;0.30;;;21.00;1.00;;;;;;5138663;27;20418;-60
2023/09/24 13:00:00;;;;;;;0.55;0.30;;;20.70;1.00;;;;;;5136960;27;20410;-60
2023/09/24 13:02:28;;;;;;;0.50;0.30;;;20.50;1.00;;;;;;5137281;27;20449;-59
2023/09/24 13:04:56;;;;;;;0.70;0.30;;;20.50;1.00;;;;;;5138563;27;20739;-59